Station History

Weather Underground - logo

Station Historical Data
Daily Summary for November 19, 2017 Units:  English    Metric   Both
« Previous Day
Next Day »
Daily Weekly Monthly Yearly Custom
  High: Low: Average:
Temperature: TemperatureF °F 40.1 °F 49.8 °F
Dew Point: DewpointF °F 39.1 °F 45.5 °F
Humidity: Humidity % 60 % 86 %
Wind Speed: WindSpeedMPH mph 0.0 mph 0.5 mph
Wind Gust: WindSpeedGustMPH mph - -
Wind:- - SSW
Pressure: PressureIn in 30.05 in -
Precipitation: 0.01 in    
Historical Graphs
 
 
Tabular Data for November 19, 2017
Time Temperature Dew Point Pressure Wind Wind Speed Wind Gust Humidity Rainfall Rate (Hourly)
TemperatureF °F DewpointF °F PressureIn in Calm     Humidity % HourlyPrecipIn in
00:07 47.0 °F 45.6 °F 30.18 in Calm     95 % 0.00 in
00:12 47.0 °F 45.6 °F 30.18 in Calm     95 % 0.00 in
00:17 46.8 °F 45.2 °F 30.18 in Calm     94 % 0.00 in
00:22 46.6 °F 45.0 °F 30.18 in Calm     94 % 0.00 in
00:32 46.1 °F 44.5 °F 30.17 in Calm     94 % 0.00 in
00:42 45.1 °F 43.2 °F 30.16 in Calm     93 % 0.00 in
00:47 44.9 °F 43.3 °F 30.16 in Calm     94 % 0.00 in
00:52 44.2 °F 42.3 °F 30.16 in Calm     93 % 0.00 in
00:57 43.7 °F 41.8 °F 30.16 in Calm     93 % 0.00 in
01:07 43.4 °F 41.8 °F 30.15 in Calm     94 % 0.00 in
01:12 43.4 °F 41.8 °F 30.15 in Calm     94 % 0.00 in
01:17 43.5 °F 42.2 °F 30.15 in Calm     95 % 0.00 in
01:22 43.5 °F 42.2 °F 30.15 in Calm     95 % 0.00 in
01:32 43.6 °F 42.3 °F 30.15 in Calm     95 % 0.00 in
01:37 43.6 °F 42.3 °F 30.14 in Calm     95 % 0.00 in
01:42 43.5 °F 42.2 °F 30.15 in Calm     95 % 0.00 in
01:52 43.7 °F 42.4 °F 30.15 in Calm     95 % 0.00 in
01:57 43.6 °F 42.3 °F 30.15 in Calm     95 % 0.00 in
02:02 43.7 °F 42.4 °F 30.15 in Calm     95 % 0.00 in
02:13 43.1 °F 41.8 °F 30.15 in Calm     95 % 0.00 in
02:18 42.9 °F 41.6 °F 30.15 in Calm     95 % 0.00 in
02:23 43.1 °F 41.8 °F 30.16 in Calm     95 % 0.00 in
02:28 43.4 °F 42.3 °F 30.16 in Calm     96 % 0.00 in
02:33 43.5 °F 42.4 °F 30.16 in Calm     96 % 0.00 in
02:38 43.7 °F 42.6 °F 30.16 in Calm     96 % 0.00 in
02:43 43.6 °F 42.5 °F 30.16 in Calm     96 % 0.00 in
02:53 43.6 °F 42.5 °F 30.17 in Calm     96 % 0.00 in
02:58 43.6 °F 42.5 °F 30.17 in Calm     96 % 0.00 in
03:03 43.6 °F 42.5 °F 30.17 in Calm     96 % 0.00 in
03:08 43.5 °F 42.2 °F 30.17 in Calm     95 % 0.00 in
03:13 43.1 °F 41.8 °F 30.17 in Calm     95 % 0.00 in
03:18 42.7 °F 41.4 °F 30.17 in Calm     95 % 0.00 in
03:23 42.4 °F 41.1 °F 30.17 in Calm     95 % 0.00 in
03:28 41.8 °F 40.2 °F 30.17 in Calm     94 % 0.00 in
03:38 41.7 °F 40.4 °F 30.17 in Calm     95 % 0.00 in
03:43 42.2 °F 40.9 °F 30.17 in Calm     95 % 0.00 in
03:48 42.4 °F 41.3 °F 30.17 in Calm     96 % 0.00 in
04:03 42.8 °F 41.7 °F 30.17 in Calm     96 % 0.00 in
04:08 42.5 °F 41.4 °F 30.17 in Calm     96 % 0.00 in
04:13 42.3 °F 41.0 °F 30.17 in Calm     95 % 0.00 in
04:18 42.0 °F 40.7 °F 30.16 in Calm     95 % 0.00 in
04:23 41.8 °F 40.5 °F 30.16 in Calm     95 % 0.00 in
04:28 41.6 °F 40.3 °F 30.16 in Calm     95 % 0.00 in
04:38 41.2 °F 39.9 °F 30.16 in Calm     95 % 0.00 in
04:43 41.0 °F 39.7 °F 30.16 in Calm     95 % 0.00 in
04:53 40.9 °F 39.6 °F 30.16 in Calm     95 % 0.00 in
04:58 40.9 °F 39.6 °F 30.16 in Calm     95 % 0.00 in
05:03 40.9 °F 39.6 °F 30.16 in Calm     95 % 0.00 in
05:23 40.8 °F 39.5 °F 30.17 in Calm     95 % 0.00 in
05:28 40.7 °F 39.4 °F 30.17 in Calm     95 % 0.00 in
05:33 40.6 °F 39.3 °F 30.17 in Calm     95 % 0.00 in
05:39 40.6 °F 39.3 °F 30.17 in Calm     95 % 0.00 in
05:44 40.8 °F 39.7 °F 30.17 in Calm     96 % 0.00 in
05:49 40.8 °F 39.7 °F 30.16 in Calm     96 % 0.00 in
05:54 40.9 °F 39.8 °F 30.16 in Calm     96 % 0.00 in
06:04 41.0 °F 39.9 °F 30.16 in Calm     96 % 0.00 in
06:14 40.8 °F 39.7 °F 30.17 in Calm     96 % 0.00 in
06:19 41.0 °F 39.9 °F 30.17 in Calm     96 % 0.00 in
06:24 41.0 °F 39.9 °F 30.17 in Calm     96 % 0.01 in
06:29 40.7 °F 39.6 °F 30.17 in Calm     96 % 0.01 in
06:30 40.6 °F 39.5 °F 30.17 in Calm     96 % 0.01 in
06:41 40.6 °F 39.5 °F 30.17 in Calm     96 % 0.01 in
06:51 40.1 °F 39.1 °F 30.17 in Calm     96 % 0.01 in
06:56 40.1 °F 39.1 °F 30.17 in Calm     96 % 0.01 in
07:01 40.3 °F 39.3 °F 30.17 in Calm     96 % 0.01 in
07:06 40.6 °F 39.5 °F 30.17 in Calm     96 % 0.01 in
07:11 40.8 °F 39.7 °F 30.17 in Calm     96 % 0.01 in
07:16 41.0 °F 39.9 °F 30.17 in Calm     96 % 0.01 in
07:21 41.2 °F 40.1 °F 30.17 in Calm     96 % 0.01 in
07:26 41.3 °F 40.2 °F 30.17 in Calm     96 % 0.00 in
07:31 41.3 °F 40.2 °F 30.18 in Calm     96 % 0.00 in
07:36 41.5 °F 40.4 °F 30.18 in Calm     96 % 0.00 in
07:41 41.8 °F 40.7 °F 30.18 in Calm     96 % 0.00 in
07:46 42.3 °F 41.2 °F 30.18 in Calm     96 % 0.00 in
07:56 42.7 °F 41.6 °F 30.18 in Calm     96 % 0.00 in
08:01 43.0 °F 41.9 °F 30.18 in Calm     96 % 0.00 in
08:06 43.3 °F 42.2 °F 30.18 in SSE 1.2 mph   96 % 0.00 in
08:11 43.4 °F 42.3 °F 30.18 in Calm     96 % 0.00 in
08:22 43.7 °F 42.6 °F 30.18 in SE 1.2 mph   96 % 0.00 in
08:27 44.0 °F 42.9 °F 30.18 in Calm   0.1 mph 96 % 0.00 in
08:37 44.3 °F 43.2 °F 30.19 in Calm     96 % 0.00 in
08:42 44.6 °F 43.5 °F 30.19 in Calm     96 % 0.00 in
08:47 44.9 °F 43.8 °F 30.19 in SE 1.2 mph 1.2 mph 96 % 0.00 in
08:57 45.5 °F 44.7 °F 30.19 in ESE 2.3 mph 2.3 mph 97 % 0.00 in
09:02 46.1 °F 45.3 °F 30.19 in NNE 2.3 mph 2.3 mph 97 % 0.00 in
09:12 47.1 °F 46.3 °F 30.19 in East 1.2 mph 1.2 mph 97 % 0.00 in
09:17 47.5 °F 46.7 °F 30.20 in East 1.2 mph 1.2 mph 97 % 0.00 in
09:22 48.1 °F 47.3 °F 30.19 in East 2.3 mph 2.3 mph 97 % 0.00 in
09:27 48.5 °F 47.7 °F 30.19 in SE 2.3 mph 2.3 mph 97 % 0.00 in
09:32 49.3 °F 48.5 °F 30.19 in East 1.2 mph 1.2 mph 97 % 0.00 in
09:42 51.0 °F 49.3 °F 30.19 in SE 2.3 mph 2.3 mph 94 % 0.00 in
09:52 52.4 °F 49.6 °F 30.19 in East 2.0 mph 2.0 mph 90 % 0.00 in
10:02 53.1 °F 49.3 °F 30.18 in ESE 2.3 mph 2.3 mph 87 % 0.00 in
10:07 53.4 °F 49.6 °F 30.18 in SE 2.3 mph 2.3 mph 87 % 0.00 in
10:22 54.7 °F 50.3 °F 30.16 in SE 3.5 mph 3.5 mph 85 % 0.00 in
10:27 54.8 °F 50.1 °F 30.16 in ENE 2.3 mph 2.3 mph 84 % 0.00 in
10:32 55.1 °F 50.4 °F 30.15 in SE 2.3 mph 2.3 mph 84 % 0.00 in
10:37 55.7 °F 50.6 °F 30.15 in SE 3.5 mph 3.5 mph 83 % 0.00 in
10:47 56.8 °F 51.0 °F 30.15 in ESE 1.0 mph 1.0 mph 81 % 0.00 in
11:07 58.5 °F 51.3 °F 30.14 in Calm     77 % 0.00 in
11:12 58.3 °F 51.1 °F 30.13 in SSW 1.2 mph 1.2 mph 77 % 0.00 in
11:17 58.8 °F 50.9 °F 30.14 in NW 2.3 mph 2.3 mph 75 % 0.00 in
11:32 58.9 °F 51.0 °F 30.13 in WNW 3.5 mph 3.5 mph 75 % 0.00 in
11:37 59.2 °F 51.3 °F 30.12 in Calm   0.2 mph 75 % 0.00 in
11:42 59.4 °F 51.1 °F 30.12 in East 1.2 mph   74 % 0.00 in
11:47 59.5 °F 51.2 °F 30.12 in NW 1.2 mph 1.2 mph 74 % 0.00 in
11:52 59.5 °F 51.2 °F 30.12 in Calm   0.5 mph 74 % 0.00 in
11:58 59.4 °F 50.7 °F 30.12 in Calm     73 % 0.00 in
12:03 59.7 °F 51.0 °F 30.12 in WNW 1.2 mph 1.2 mph 73 % 0.00 in
12:13 60.3 °F 50.9 °F 30.11 in ESE 1.2 mph   71 % 0.00 in
12:18 60.9 °F 51.0 °F 30.11 in NW 1.2 mph 1.2 mph 70 % 0.00 in
12:23 61.0 °F 50.8 °F 30.11 in SE 1.2 mph 1.2 mph 69 % 0.00 in
12:28 61.3 °F 51.4 °F 30.11 in East 2.3 mph   70 % 0.00 in
12:38 62.2 °F 50.7 °F 30.11 in WNW 1.2 mph 1.2 mph 66 % 0.00 in
12:48 61.9 °F 50.8 °F 30.10 in NW 3.5 mph 3.5 mph 67 % 0.00 in
12:58 62.4 °F 50.9 °F 30.10 in NNW 3.5 mph 3.5 mph 66 % 0.00 in
13:03 62.6 °F 51.5 °F 30.09 in NW 3.5 mph 3.5 mph 67 % 0.00 in
13:18 63.0 °F 51.5 °F 30.08 in NNW 1.0 mph   66 % 0.00 in
13:23 63.3 °F 50.5 °F 30.08 in ENE 1.2 mph 1.2 mph 63 % 0.00 in
13:33 63.1 °F 50.3 °F 30.08 in Calm     63 % 0.00 in
13:38 63.4 °F 51.0 °F 30.08 in WNW 1.2 mph 1.2 mph 64 % 0.00 in
13:43 63.6 °F 50.8 °F 30.08 in Calm     63 % 0.00 in
13:58 64.0 °F 51.6 °F 30.07 in NE 2.3 mph 2.3 mph 64 % 0.00 in
14:03 64.0 °F 51.1 °F 30.07 in West 2.3 mph 2.3 mph 63 % 0.00 in
14:08 64.1 °F 50.8 °F 30.06 in WNW 1.2 mph   62 % 0.00 in
14:13 64.1 °F 50.8 °F 30.06 in WNW 1.2 mph 1.2 mph 62 % 0.00 in
14:18 64.3 °F 51.4 °F 30.06 in NE 1.2 mph 1.2 mph 63 % 0.00 in
14:23 64.4 °F 50.2 °F 30.05 in NW 2.3 mph 2.3 mph 60 % 0.00 in
14:33 64.2 °F 50.9 °F 30.05 in Calm     62 % 0.00 in
14:38 64.2 °F 50.5 °F 30.05 in North 1.2 mph 1.2 mph 61 % 0.00 in
14:43 63.9 °F 50.6 °F 30.05 in WNW 2.3 mph 2.3 mph 62 % 0.00 in
14:48 63.7 °F 50.4 °F 30.05 in West 2.3 mph 2.3 mph 62 % 0.00 in
14:53 63.6 °F 50.8 °F 30.05 in West 1.2 mph 1.2 mph 63 % 0.00 in
14:58 63.6 °F 50.8 °F 30.05 in NW 2.3 mph 2.3 mph 63 % 0.00 in
15:03 63.6 °F 50.8 °F 30.05 in NW 2.0 mph 2.0 mph 63 % 0.00 in
15:08 63.5 °F 50.2 °F 30.05 in NW 2.3 mph 2.3 mph 62 % 0.00 in
15:18 63.3 °F 50.1 °F 30.05 in WNW 1.2 mph   62 % 0.00 in
15:28 63.1 °F 49.9 °F 30.05 in WNW 1.2 mph 1.2 mph 62 % 0.00 in
15:33 63.0 °F 50.2 °F 30.05 in Calm     63 % 0.00 in
15:38 63.0 °F 50.2 °F 30.05 in West 1.2 mph 1.2 mph 63 % 0.00 in
15:48 62.8 °F 50.9 °F 30.06 in Calm     65 % 0.00 in
15:53 62.6 °F 50.7 °F 30.06 in Calm     65 % 0.00 in
16:03 62.1 °F 50.2 °F 30.06 in WNW 1.2 mph   65 % 0.00 in
16:08 61.9 °F 50.0 °F 30.06 in Calm     65 % 0.00 in
16:13 61.7 °F 49.8 °F 30.06 in Calm     65 % 0.00 in
16:18 61.4 °F 49.9 °F 30.06 in Calm     66 % 0.00 in
16:23 61.1 °F 50.1 °F 30.06 in Calm     67 % 0.00 in
16:28 60.8 °F 50.6 °F 30.06 in Calm     69 % 0.00 in
16:33 60.3 °F 50.5 °F 30.07 in Calm     70 % 0.00 in
16:38 59.7 °F 50.3 °F 30.07 in Calm     71 % 0.00 in
16:39 59.7 °F 50.7 °F 30.07 in Calm     72 % 0.00 in
16:44 59.0 °F 50.4 °F 30.07 in Calm     73 % 0.00 in
16:49 58.4 °F 50.1 °F 30.08 in Calm     74 % 0.00 in
16:54 58.0 °F 50.1 °F 30.08 in Calm     75 % 0.00 in
16:59 57.6 °F 49.7 °F 30.08 in Calm     75 % 0.00 in
17:04 57.1 °F 50.0 °F 30.08 in Calm     77 % 0.00 in
17:09 56.6 °F 49.5 °F 30.08 in Calm     77 % 0.00 in
17:19 55.8 °F 49.0 °F 30.08 in Calm     78 % 0.00 in
17:24 55.3 °F 48.9 °F 30.08 in Calm     79 % 0.00 in
17:29 54.9 °F 48.8 °F 30.08 in Calm     80 % 0.00 in
17:34 54.5 °F 48.8 °F 30.08 in Calm     81 % 0.00 in
17:39 54.3 °F 48.6 °F 30.08 in Calm     81 % 0.00 in
17:44 53.9 °F 48.9 °F 30.08 in Calm     83 % 0.00 in
17:54 53.2 °F 48.5 °F 30.09 in Calm     84 % 0.00 in
17:59 52.8 °F 48.1 °F 30.08 in Calm     84 % 0.00 in
18:04 52.6 °F 48.5 °F 30.07 in Calm     86 % 0.00 in
18:14 53.0 °F 48.3 °F 30.08 in Calm     84 % 0.00 in
18:19 52.4 °F 48.0 °F 30.08 in Calm     85 % 0.00 in
18:24 51.9 °F 47.5 °F 30.08 in Calm     85 % 0.00 in
18:29 51.3 °F 47.3 °F 30.09 in Calm     86 % 0.00 in
18:34 50.8 °F 47.1 °F 30.09 in Calm     87 % 0.00 in
18:44 50.3 °F 47.2 °F 30.10 in Calm     89 % 0.00 in
18:54 49.9 °F 47.1 °F 30.09 in Calm     90 % 0.00 in
18:59 49.7 °F 46.9 °F 30.10 in Calm     90 % 0.00 in
19:04 49.9 °F 47.4 °F 30.10 in Calm     91 % 0.00 in
19:09 50.1 °F 47.6 °F 30.10 in Calm     91 % 0.00 in
19:11 50.2 °F 47.4 °F 30.10 in Calm     90 % 0.00 in
19:21 50.4 °F 47.3 °F 30.10 in Calm     89 % 0.00 in
19:26 50.4 °F 47.3 °F 30.10 in Calm     89 % 0.00 in
19:31 50.2 °F 47.1 °F 30.10 in Calm     89 % 0.00 in
19:41 49.8 °F 47.0 °F 30.10 in Calm     90 % 0.00 in
19:46 49.5 °F 46.4 °F 30.10 in Calm     89 % 0.00 in
19:56 48.8 °F 46.0 °F 30.10 in Calm     90 % 0.00 in
20:06 48.5 °F 46.3 °F 30.11 in Calm     92 % 0.00 in
20:16 48.4 °F 45.9 °F 30.11 in Calm     91 % 0.00 in
20:21 48.0 °F 45.5 °F 30.11 in Calm     91 % 0.00 in
20:22 48.0 °F 45.5 °F 30.11 in Calm     91 % 0.00 in
20:27 47.8 °F 45.3 °F 30.12 in Calm     91 % 0.00 in
20:32 47.7 °F 45.2 °F 30.12 in Calm     91 % 0.00 in
20:37 47.9 °F 45.7 °F 30.12 in Calm     92 % 0.00 in
20:42 48.0 °F 45.8 °F 30.12 in Calm     92 % 0.00 in
20:47 48.0 °F 45.8 °F 30.11 in Calm     92 % 0.00 in
21:07 47.9 °F 45.7 °F 30.12 in Calm     92 % 0.00 in
21:09 47.9 °F 45.7 °F 30.12 in Calm     92 % 0.00 in
21:14 47.7 °F 45.5 °F 30.12 in Calm     92 % 0.00 in
21:19 47.6 °F 45.4 °F 30.12 in Calm     92 % 0.00 in
21:24 47.4 °F 45.2 °F 30.12 in Calm     92 % 0.00 in
21:39 47.4 °F 45.2 °F 30.12 in Calm     92 % 0.00 in
21:44 47.6 °F 45.7 °F 30.12 in Calm     93 % 0.00 in
22:04 47.4 °F 45.5 °F 30.12 in Calm     93 % 0.00 in
22:09 47.1 °F 44.9 °F 30.11 in Calm     92 % 0.00 in
22:14 46.8 °F 44.6 °F 30.11 in Calm     92 % 0.00 in
22:19 46.5 °F 44.3 °F 30.11 in Calm     92 % 0.00 in
22:24 46.4 °F 44.5 °F 30.12 in Calm     93 % 0.00 in
22:29 46.3 °F 44.4 °F 30.12 in Calm     93 % 0.00 in
22:34 46.2 °F 44.3 °F 30.12 in Calm     93 % 0.00 in
22:39 45.9 °F 44.0 °F 30.11 in Calm     93 % 0.00 in
22:49 45.3 °F 43.4 °F 30.12 in Calm     93 % 0.00 in
22:59 44.9 °F 43.0 °F 30.12 in Calm     93 % 0.00 in
23:04 44.7 °F 42.8 °F 30.12 in Calm     93 % 0.00 in
23:34 45.5 °F 44.2 °F 30.13 in Calm     95 % 0.00 in
23:39 45.6 °F 44.3 °F 30.14 in Calm     95 % 0.00 in
23:44 45.6 °F 44.3 °F 30.14 in Calm     95 % 0.00 in
23:49 45.6 °F 44.3 °F 30.14 in Calm     95 % 0.00 in
23:54 45.5 °F 43.9 °F 30.14 in Calm     94 % 0.00 in
23:59 45.4 °F 43.8 °F 30.14 in Calm     94 % 0.00 in
Park Place, Exeter, Tulare County, California, USA
Compliments of Weather Underground - 2.25 mb